| time (UTC) | temp C | wind direction | speed KPH | gust KPH | rain 1hr cm | rain 24hr cm | rain mn cm | humidity % | barometer mb |
| 20260906104223 | 18 | 213 | 4.8 | 4.8 | 0.00 | 0.00 | 0.00 | 96 | 1015.6 |
| 20260906103740 | 18 | 190 | 0.0 | 1.6 | 0.00 | 0.00 | 0.00 | 96 | 1015.5 |
| 20260906103227 | 18 | 38 | 1.6 | 3.2 | 0.00 | 0.00 | 0.00 | 96 | 1015.5 |
| 20260906102721 | 18 | 67 | 0.0 | 1.6 | 0.00 | 0.00 | 0.00 | 96 | 1015.5 |
| 20260906102221 | 18 | 0 | 0.0 | 0.0 | 0.00 | 0.00 | 0.00 | 95 | 1015.6 |
| 20260906101733 | 18 | 59 | 0.0 | 1.6 | 0.00 | 0.00 | 0.00 | 95 | 1015.5 |
| 20260906101220 | 18 | 0 | 0.0 | 1.6 | 0.00 | 0.00 | 0.00 | 95 | 1015.4 |
| 20260906100739 | 18 | 0 | 0.0 | 0.0 | 0.00 | 0.00 | 0.00 | 95 | 1015.4 |
| 20260906100221 | 18 | 276 | 1.6 | 3.2 | 0.00 | 0.00 | 0.00 | 95 | 1015.3 |
| 20260906095733 | 18 | 29 | 1.6 | 1.6 | 0.00 | 0.00 | 0.00 | 95 | 1015.2 |
| 20260906095234 | 18 | 46 | 0.0 | 1.6 | 0.00 | 0.00 | 0.00 | 95 | 1015.2 |
| 20260906094729 | 18 | 28 | 0.0 | 1.6 | 0.00 | 0.00 | 0.00 | 96 | 1015.2 |
| 20260906094227 | 18 | 273 | 0.0 | 1.6 | 0.00 | 0.00 | 0.00 | 96 | 1015.2 |
| 20260906093730 | 18 | 0 | 0.0 | 0.0 | 0.00 | 0.00 | 0.00 | 96 | 1015.1 |
| 20260906093228 | 18 | 0 | 0.0 | 0.0 | 0.00 | 0.00 | 0.00 | 95 | 1015.2 |
| 20260906092714 | 18 | 0 | 0.0 | 0.0 | 0.00 | 0.00 | 0.00 | 96 | 1015.2 |
| 20260906092233 | 18 | 190 | 1.6 | 3.2 | 0.00 | 0.00 | 0.00 | 96 | 1015.2 |
| 20260906091712 | 18 | 0 | 0.0 | 0.0 | 0.00 | 0.00 | 0.00 | 95 | 1015.2 |
| 20260906091212 | 18 | 8 | 0.0 | 1.6 | 0.00 | 0.00 | 0.00 | 95 | 1015.2 |
| 20260906090712 | 18 | 0 | 0.0 | 0.0 | 0.00 | 0.00 | 0.00 | 95 | 1015.1 |
| 20260906090211 | 18 | 208 | 1.6 | 1.6 | 0.00 | 0.00 | 0.00 | 95 | 1015.2 |
| 20260906085711 | 18 | 55 | 0.0 | 1.6 | 0.00 | 0.00 | 0.00 | 95 | 1015.1 |
| 20260906085211 | 18 | 59 | 1.6 | 1.6 | 0.00 | 0.00 | 0.00 | 95 | 1015.1 |
| 20260906084710 | 18 | 0 | 0.0 | 0.0 | 0.00 | 0.00 | 0.00 | 95 | 1015.2 |
| 20260906084225 | 18 | 0 | 0.0 | 0.0 | 0.00 | 0.00 | 0.00 | 94 | 1015.2 |
| 20260906083729 | 18 | 276 | 0.0 | 0.0 | 0.00 | 0.00 | 0.00 | 94 | 1015.1 |
| 20260906083210 | 18 | 39 | 0.0 | 1.6 | 0.00 | 0.00 | 0.00 | 94 | 1015.1 |
| 20260906082713 | 18 | 209 | 1.6 | 3.2 | 0.00 | 0.00 | 0.00 | 94 | 1015.1 |
| 20260906082222 | 18 | 28 | 1.6 | 1.6 | 0.00 | 0.00 | 0.00 | 94 | 1015.1 |
| 20260906081708 | 18 | 246 | 0.0 | 1.6 | 0.00 | 0.00 | 0.00 | 94 | 1015.0 |
| 20260906081218 | 18 | 31 | 0.0 | 1.6 | 0.00 | 0.00 | 0.00 | 93 | 1015.0 |
| 20260906080720 | 18 | 171 | 0.0 | 1.6 | 0.00 | 0.00 | 0.00 | 93 | 1015.0 |
| 20260906080224 | 18 | 243 | 0.0 | 1.6 | 0.00 | 0.00 | 0.00 | 93 | 1015.1 |
| 20260906075703 | 18 | 229 | 3.2 | 4.8 | 0.00 | 0.00 | 0.00 | 93 | 1015.0 |
| 20260906075203 | 18 | 250 | 0.0 | 1.6 | 0.00 | 0.00 | 0.00 | 93 | 1014.9 |
| 20260906074719 | 18 | 313 | 0.0 | 1.6 | 0.00 | 0.00 | 0.00 | 93 | 1015.0 |
| 20260906074221 | 18 | 230 | 3.2 | 4.8 | 0.00 | 0.00 | 0.00 | 93 | 1015.0 |
| 20260906073721 | 19 | 271 | 1.6 | 1.6 | 0.00 | 0.00 | 0.00 | 93 | 1015.0 |
| 20260906073220 | 19 | 238 | 0.0 | 1.6 | 0.00 | 0.00 | 0.00 | 93 | 1014.9 |
| 20260906072719 | 19 | 38 | 0.0 | 1.6 | 0.00 | 0.00 | 0.00 | 93 | 1015.0 |
| 20260906072159 | 19 | 146 | 1.6 | 1.6 | 0.00 | 0.00 | 0.00 | 93 | 1015.1 |
| 20260906071658 | 19 | 27 | 1.6 | 3.2 | 0.00 | 0.00 | 0.00 | 92 | 1015.0 |
| 20260906071158 | 19 | 85 | 1.6 | 3.2 | 0.00 | 0.00 | 0.00 | 92 | 1015.1 |
| 20260906070702 | 19 | 293 | 3.2 | 3.2 | 0.00 | 0.00 | 0.00 | 91 | 1015.1 |
| 20260906065656 | 20 | 99 | 0.0 | 3.2 | 0.00 | 0.00 | 0.00 | 91 | 1015.1 |
| 20260906065208 | 19 | 329 | 0.0 | 1.6 | 0.00 | 0.00 | 0.00 | 91 | 1015.2 |
| 20260906064655 | 19 | 49 | 3.2 | 4.8 | 0.00 | 0.00 | 0.00 | 91 | 1015.3 |
| 20260906064214 | 19 | 242 | 1.6 | 1.6 | 0.00 | 0.00 | 0.00 | 92 | 1015.3 |
| 20260906063714 | 19 | 245 | 0.0 | 1.6 | 0.00 | 0.00 | 0.00 | 92 | 1015.4 |
| 20260906063213 | 19 | 302 | 0.0 | 1.6 | 0.00 | 0.00 | 0.00 | 92 | 1015.5 |
| 20260906062652 | 19 | 213 | 0.0 | 1.6 | 0.00 | 0.00 | 0.00 | 91 | 1015.5 |
| 20260906062202 | 19 | 206 | 0.0 | 1.6 | 0.00 | 0.00 | 0.00 | 91 | 1015.5 |
| 20260906061706 | 19 | 203 | 1.6 | 3.2 | 0.00 | 0.00 | 0.00 | 91 | 1015.5 |
| 20260906061151 | 19 | 220 | 0.0 | 1.6 | 0.00 | 0.00 | 0.00 | 91 | 1015.5 |
| 20260906060650 | 19 | 228 | 0.0 | 1.6 | 0.00 | 0.00 | 0.00 | 91 | 1015.5 |
| 20260906060203 | 19 | 277 | 1.6 | 3.2 | 0.00 | 0.00 | 0.00 | 91 | 1015.6 |
| 20260906055709 | 19 | 206 | 3.2 | 3.2 | 0.00 | 0.00 | 0.00 | 91 | 1015.5 |
| 20260906055208 | 19 | 196 | 0.0 | 1.6 | 0.00 | 0.00 | 0.00 | 91 | 1015.6 |
| 20260906054707 | 19 | 61 | 0.0 | 1.6 | 0.00 | 0.00 | 0.00 | 90 | 1015.6 |
| 20260906054149 | 19 | 216 | 1.6 | 3.2 | 0.00 | 0.00 | 0.00 | 90 | 1015.5 |
| 20260906053650 | 19 | 218 | 3.2 | 3.2 | 0.00 | 0.00 | 0.00 | 91 | 1015.4 |
| 20260906053146 | 19 | 228 | 1.6 | 3.2 | 0.00 | 0.00 | 0.00 | 91 | 1015.4 |
| 20260906052645 | 19 | 224 | 0.0 | 1.6 | 0.00 | 0.00 | 0.00 | 90 | 1015.3 |
| 20260906052205 | 19 | 229 | 1.6 | 3.2 | 0.00 | 0.00 | 0.00 | 90 | 1015.3 |
| 20260906051644 | 19 | 196 | 3.2 | 3.2 | 0.00 | 0.00 | 0.00 | 90 | 1015.3 |
| 20260906051144 | 19 | 212 | 3.2 | 3.2 | 0.00 | 0.00 | 0.00 | 91 | 1015.4 |
| 20260906050643 | 19 | 284 | 0.0 | 1.6 | 0.00 | 0.00 | 0.00 | 90 | 1015.5 |
| 20260906050203 | 19 | 72 | 0.0 | 1.6 | 0.00 | 0.00 | 0.00 | 89 | 1015.6 |
| 20260906045702 | 20 | 88 | 0.0 | 1.6 | 0.00 | 0.00 | 0.00 | 89 | 1015.5 |
| 20260906045159 | 20 | 215 | 0.0 | 1.6 | 0.00 | 0.00 | 0.00 | 89 | 1015.6 |
| 20260906044641 | 20 | 270 | 0.0 | 1.6 | 0.00 | 0.00 | 0.00 | 89 | 1015.5 |
| 20260906044141 | 20 | 258 | 0.0 | 1.6 | 0.00 | 0.00 | 0.00 | 89 | 1015.4 |
| 20260906043641 | 20 | 353 | 0.0 | 0.0 | 0.00 | 0.00 | 0.00 | 89 | 1015.4 |
| 20260906043200 | 20 | 128 | 0.0 | 1.6 | 0.00 | 0.00 | 0.00 | 88 | 1015.5 |
| 20260906042639 | 20 | 178 | 0.0 | 1.6 | 0.00 | 0.00 | 0.00 | 88 | 1015.5 |
| 20260906042138 | 20 | 310 | 0.0 | 1.6 | 0.00 | 0.00 | 0.00 | 88 | 1015.5 |
| 20260906041638 | 20 | 46 | 0.0 | 1.6 | 0.00 | 0.00 | 0.00 | 87 | 1015.5 |
| 20260906041140 | 20 | 324 | 1.6 | 3.2 | 0.00 | 0.00 | 0.00 | 87 | 1015.6 |
| 20260906040637 | 20 | 332 | 0.0 | 1.6 | 0.00 | 0.05 | 0.00 | 86 | 1015.7 |
| 20260906040156 | 20 | 90 | 0.0 | 1.6 | 0.00 | 0.05 | 0.00 | 86 | 1015.6 |
| 20260906035639 | 20 | 215 | 1.6 | 3.2 | 0.00 | 0.05 | 0.00 | 86 | 1015.7 |
| 20260906035137 | 20 | 6 | 0.0 | 1.6 | 0.00 | 0.05 | 0.00 | 86 | 1015.6 |
| 20260906034634 | 21 | 27 | 1.6 | 3.2 | 0.00 | 0.05 | 0.00 | 85 | 1015.6 |
| 20260906034136 | 21 | 0 | 0.0 | 0.0 | 0.00 | 0.05 | 0.00 | 85 | 1015.6 |
| 20260906033653 | 21 | 222 | 0.0 | 0.0 | 0.00 | 0.05 | 0.00 | 85 | 1015.7 |
| 20260906033149 | 21 | 327 | 1.6 | 1.6 | 0.00 | 0.05 | 0.00 | 84 | 1015.7 |
| 20260906032632 | 21 | 63 | 0.0 | 1.6 | 0.00 | 0.05 | 0.00 | 84 | 1015.7 |
| 20260906032131 | 21 | 18 | 0.0 | 1.6 | 0.00 | 0.05 | 0.00 | 83 | 1015.8 |
| 20260906031631 | 22 | 350 | 0.0 | 1.6 | 0.00 | 0.05 | 0.00 | 81 | 1015.8 |
| 20260906031150 | 22 | 139 | 0.0 | 0.0 | 0.00 | 0.05 | 0.00 | 80 | 1015.8 |
| 20260906030643 | 22 | 35 | 0.0 | 0.0 | 0.00 | 0.05 | 0.00 | 79 | 1015.8 |
| 20260906030140 | 22 | 161 | 0.0 | 3.2 | 0.00 | 0.05 | 0.00 | 78 | 1015.8 |
| 20260906025628 | 22 | 88 | 1.6 | 3.2 | 0.00 | 0.05 | 0.00 | 77 | 1015.8 |
| 20260906025128 | 23 | 279 | 1.6 | 3.2 | 0.00 | 0.05 | 0.00 | 77 | 1016.0 |
| 20260906024628 | 22 | 309 | 1.6 | 3.2 | 0.00 | 0.05 | 0.00 | 77 | 1016.1 |
| 20260906024131 | 22 | 295 | 0.0 | 1.6 | 0.00 | 0.05 | 0.00 | 78 | 1016.1 |
| 20260906023627 | 23 | 340 | 0.0 | 1.6 | 0.00 | 0.05 | 0.00 | 77 | 1015.8 |
| 20260906023130 | 23 | 61 | 0.0 | 1.6 | 0.00 | 0.05 | 0.00 | 76 | 1015.8 |
| 20260906022625 | 23 | 307 | 3.2 | 6.4 | 0.00 | 0.05 | 0.00 | 75 | 1016.0 |
| 20260906022125 | 23 | 287 | 0.0 | 1.6 | 0.00 | 0.05 | 0.00 | 76 | 1016.1 |
| 20260906021624 | 23 | 296 | 1.6 | 3.2 | 0.00 | 0.05 | 0.00 | 76 | 1016.1 |
| 20260906021144 | 23 | 63 | 0.0 | 1.6 | 0.00 | 0.05 | 0.00 | 75 | 1016.1 |
| 20260906020623 | 23 | 303 | 0.0 | 1.6 | 0.00 | 0.05 | 0.00 | 75 | 1016.1 |
| 20260906020142 | 23 | 302 | 1.6 | 3.2 | 0.00 | 0.05 | 0.00 | 75 | 1016.1 |
| 20260906015636 | 23 | 318 | 1.6 | 1.6 | 0.00 | 0.05 | 0.00 | 76 | 1016.0 |
| 20260906015121 | 23 | 326 | 0.0 | 3.2 | 0.00 | 0.05 | 0.00 | 76 | 1016.1 |
| 20260906014620 | 23 | 353 | 0.0 | 1.6 | 0.00 | 0.05 | 0.00 | 77 | 1016.0 |
| 20260906014121 | 23 | 284 | 0.0 | 1.6 | 0.00 | 0.05 | 0.00 | 76 | 1016.0 |
| 20260906013619 | 23 | 54 | 0.0 | 0.0 | 0.00 | 0.05 | 0.00 | 76 | 1016.0 |
| 20260906013119 | 23 | 267 | 0.0 | 1.6 | 0.00 | 0.05 | 0.00 | 75 | 1015.8 |
| 20260906012618 | 23 | 306 | 1.6 | 3.2 | 0.00 | 0.05 | 0.00 | 74 | 1015.7 |
| 20260906012118 | 23 | 268 | 0.0 | 1.6 | 0.00 | 0.05 | 0.00 | 73 | 1015.6 |
| 20260906011638 | 23 | 65 | 0.0 | 1.6 | 0.00 | 0.05 | 0.00 | 73 | 1015.6 |
| 20260906011117 | 23 | 224 | 0.0 | 1.6 | 0.00 | 0.05 | 0.00 | 72 | 1015.5 |
| 20260906010616 | 23 | 223 | 1.6 | 4.8 | 0.00 | 0.05 | 0.00 | 72 | 1015.4 |
| 20260906010121 | 24 | 38 | 0.0 | 1.6 | 0.00 | 0.05 | 0.00 | 72 | 1015.4 |
| 20260906005626 | 24 | 13 | 1.6 | 3.2 | 0.00 | 0.05 | 0.00 | 71 | 1015.2 |
| 20260906005127 | 24 | 76 | 1.6 | 3.2 | 0.00 | 0.05 | 0.00 | 70 | 1015.3 |
| 20260906004614 | 24 | 283 | 3.2 | 6.4 | 0.00 | 0.05 | 0.00 | 70 | 1015.3 |
| 20260906004114 | 24 | 251 | 1.6 | 6.4 | 0.00 | 0.05 | 0.00 | 70 | 1015.2 |
| 20260906003633 | 24 | 66 | 1.6 | 3.2 | 0.00 | 0.05 | 0.00 | 70 | 1015.2 |
| 20260906003132 | 24 | 124 | 0.0 | 3.2 | 0.00 | 0.05 | 0.00 | 69 | 1015.1 |
| 20260906002611 | 24 | 261 | 1.6 | 4.8 | 0.00 | 0.05 | 0.00 | 69 | 1015.2 |
| 20260906002111 | 24 | 199 | 0.0 | 1.6 | 0.00 | 0.05 | 0.00 | 69 | 1015.1 |
| 20260906001611 | 24 | 69 | 1.6 | 3.2 | 0.00 | 0.05 | 0.00 | 68 | 1015.1 |
| 20260906001110 | 24 | 290 | 3.2 | 8.0 | 0.00 | 0.05 | 0.00 | 68 | 1015.1 |
| 20260906000610 | 25 | 89 | 0.0 | 1.6 | 0.00 | 0.05 | 0.00 | 68 | 1015.0 |
| 20260906000110 | 25 | 85 | 1.6 | 3.2 | 0.00 | 0.05 | 0.00 | 67 | 1014.9 |
| 20260905235609 | 25 | 310 | 0.0 | 1.6 | 0.00 | 0.05 | 0.00 | 66 | 1014.9 |
| 20260905235129 | 25 | 207 | 1.6 | 1.6 | 0.00 | 0.05 | 0.00 | 65 | 1014.9 |
| 20260905234608 | 25 | 46 | 1.6 | 3.2 | 0.00 | 0.05 | 0.00 | 65 | 1014.9 |
| 20260905234108 | 25 | 283 | 1.6 | 3.2 | 0.00 | 0.05 | 0.00 | 65 | 1014.8 |
| 20260905233612 | 26 | 359 | 1.6 | 3.2 | 0.00 | 0.05 | 0.00 | 64 | 1014.8 |
| 20260905233107 | 26 | 248 | 0.0 | 1.6 | 0.00 | 0.05 | 0.00 | 63 | 1014.8 |
| 20260905232606 | 26 | 308 | 0.0 | 0.0 | 0.00 | 0.05 | 0.00 | 62 | 1014.9 |
| 20260905232106 | 26 | 31 | 1.6 | 3.2 | 0.00 | 0.05 | 0.00 | 62 | 1014.8 |
| 20260905231605 | 26 | 302 | 1.6 | 4.8 | 0.00 | 0.05 | 0.00 | 61 | 1014.7 |
| 20260905231104 | 26 | 31 | 1.6 | 3.2 | 0.00 | 0.05 | 0.00 | 61 | 1014.7 |
| 20260905230604 | 26 | 33 | 0.0 | 1.6 | 0.00 | 0.05 | 0.00 | 60 | 1014.7 |
| 20260905230103 | 27 | 265 | 3.2 | 4.8 | 0.00 | 0.05 | 0.00 | 59 | 1014.8 |
| 20260905225602 | 27 | 54 | 3.2 | 4.8 | 0.00 | 0.05 | 0.00 | 59 | 1014.8 |
| 20260905225102 | 27 | 69 | 3.2 | 6.4 | 0.00 | 0.05 | 0.00 | 59 | 1014.9 |
| 20260905224601 | 27 | 41 | 1.6 | 6.4 | 0.00 | 0.05 | 0.00 | 60 | 1014.9 |
| 20260905224101 | 28 | 69 | 3.2 | 4.8 | 0.00 | 0.05 | 0.00 | 60 | 1014.9 |
| 20260905223600 | 28 | 30 | 1.6 | 6.4 | 0.00 | 0.05 | 0.00 | 59 | 1014.9 |
| 20260905223059 | 27 | 17 | 1.6 | 3.2 | 0.00 | 0.05 | 0.00 | 59 | 1014.8 |
| 20260905222559 | 28 | 314 | 4.8 | 9.7 | 0.00 | 0.05 | 0.00 | 58 | 1014.8 |
| 20260905222059 | 28 | 302 | 3.2 | 4.8 | 0.00 | 0.05 | 0.00 | 58 | 1014.8 |
| 20260905221558 | 28 | 328 | 3.2 | 8.0 | 0.00 | 0.05 | 0.00 | 58 | 1014.8 |
| 20260905221057 | 28 | 49 | 1.6 | 4.8 | 0.00 | 0.05 | 0.00 | 57 | 1014.8 |
| 20260905220557 | 28 | 296 | 6.4 | 11.3 | 0.00 | 0.05 | 0.00 | 57 | 1014.7 |
| 20260905220057 | 29 | 289 | 6.4 | 9.7 | 0.00 | 0.08 | 0.00 | 54 | 1014.7 |
| 20260905215556 | 28 | 87 | 3.2 | 8.0 | 0.00 | 0.10 | 0.00 | 55 | 1014.6 |
| 20260905215055 | 28 | 34 | 4.8 | 9.7 | 0.00 | 0.10 | 0.00 | 55 | 1014.6 |
| 20260905214555 | 28 | 293 | 4.8 | 9.7 | 0.00 | 0.10 | 0.00 | 58 | 1014.6 |
| 20260905214054 | 28 | 16 | 1.6 | 4.8 | 0.00 | 0.10 | 0.00 | 58 | 1014.5 |
| 20260905213554 | 28 | 1 | 3.2 | 6.4 | 0.00 | 0.10 | 0.00 | 58 | 1014.4 |
| 20260905213053 | 28 | 323 | 3.2 | 4.8 | 0.00 | 0.10 | 0.00 | 58 | 1014.4 |
| 20260905212552 | 28 | 272 | 3.2 | 6.4 | 0.00 | 0.10 | 0.00 | 58 | 1014.3 |
| 20260905212052 | 28 | 296 | 9.7 | 16.1 | 0.00 | 0.10 | 0.00 | 57 | 1014.4 |
| 20260905211551 | 28 | 352 | 3.2 | 6.4 | 0.00 | 0.10 | 0.00 | 59 | 1014.4 |
| 20260905211051 | 28 | 300 | 8.0 | 11.3 | 0.00 | 0.10 | 0.00 | 57 | 1014.4 |
| 20260905210550 | 28 | 55 | 6.4 | 14.5 | 0.00 | 0.10 | 0.00 | 59 | 1014.4 |
| 20260905210050 | 28 | 37 | 3.2 | 6.4 | 0.00 | 0.10 | 0.00 | 58 | 1014.4 |
| 20260905205549 | 28 | 51 | 6.4 | 11.3 | 0.00 | 0.10 | 0.00 | 58 | 1014.3 |
| 20260905205048 | 28 | 44 | 4.8 | 9.7 | 0.00 | 0.10 | 0.00 | 60 | 1014.3 |
| 20260905204548 | 28 | 50 | 6.4 | 9.7 | 0.00 | 0.10 | 0.00 | 59 | 1014.3 |
| 20260905204047 | 28 | 42 | 3.2 | 6.4 | 0.00 | 0.10 | 0.00 | 60 | 1014.3 |
| 20260905203547 | 28 | 47 | 6.4 | 9.7 | 0.00 | 0.10 | 0.00 | 59 | 1014.3 |
| 20260905203046 | 28 | 0 | 3.2 | 6.4 | 0.00 | 0.10 | 0.00 | 61 | 1014.4 |
| 20260905202548 | 28 | 55 | 3.2 | 6.4 | 0.00 | 0.10 | 0.00 | 60 | 1014.4 |
| 20260905202045 | 28 | 302 | 8.0 | 12.9 | 0.00 | 0.10 | 0.00 | 57 | 1014.3 |
| 20260905201545 | 28 | 73 | 1.6 | 4.8 | 0.00 | 0.10 | 0.00 | 57 | 1014.3 |
| 20260905201044 | 28 | 50 | 3.2 | 11.3 | 0.00 | 0.10 | 0.00 | 57 | 1014.1 |
| 20260905200543 | 28 | 52 | 4.8 | 8.0 | 0.00 | 0.10 | 0.00 | 59 | 1014.3 |
| 20260905200043 | 28 | 46 | 4.8 | 8.0 | 0.00 | 0.10 | 0.00 | 58 | 1014.4 |
| 20260905195542 | 28 | 50 | 4.8 | 9.7 | 0.00 | 0.10 | 0.00 | 59 | 1014.4 |
| 20260905195041 | 28 | 45 | 4.8 | 8.0 | 0.00 | 0.10 | 0.00 | 57 | 1014.4 |
| 20260905194540 | 28 | 42 | 1.6 | 8.0 | 0.00 | 0.10 | 0.00 | 58 | 1014.4 |
| 20260905194040 | 28 | 52 | 6.4 | 11.3 | 0.00 | 0.10 | 0.00 | 59 | 1014.3 |
| 20260905193539 | 28 | 32 | 4.8 | 8.0 | 0.00 | 0.10 | 0.00 | 58 | 1014.4 |
| 20260905193039 | 28 | 44 | 6.4 | 12.9 | 0.00 | 0.10 | 0.00 | 59 | 1014.4 |
| 20260905192538 | 28 | 303 | 6.4 | 12.9 | 0.00 | 0.10 | 0.00 | 59 | 1014.4 |
| 20260905192038 | 28 | 3 | 1.6 | 4.8 | 0.00 | 0.10 | 0.00 | 63 | 1014.5 |
| 20260905191537 | 28 | 326 | 1.6 | 6.4 | 0.00 | 0.10 | 0.00 | 65 | 1014.5 |
| 20260905191037 | 28 | 47 | 6.4 | 12.9 | 0.00 | 0.10 | 0.00 | 65 | 1014.6 |
| 20260905190536 | 28 | 52 | 9.7 | 16.1 | 0.00 | 0.10 | 0.00 | 62 | 1014.7 |
| 20260905190035 | 28 | 55 | 3.2 | 6.4 | 0.00 | 0.10 | 0.00 | 66 | 1014.7 |
| 20260905185535 | 28 | 20 | 3.2 | 8.0 | 0.00 | 0.10 | 0.00 | 65 | 1014.7 |
| 20260905185034 | 28 | 52 | 11.3 | 14.5 | 0.00 | 0.10 | 0.00 | 66 | 1014.9 |
| 20260905184534 | 28 | 44 | 6.4 | 14.5 | 0.00 | 0.10 | 0.00 | 65 | 1014.9 |
| 20260905184033 | 29 | 78 | 3.2 | 9.7 | 0.00 | 0.10 | 0.00 | 61 | 1014.9 |
| 20260905183533 | 29 | 303 | 6.4 | 14.5 | 0.00 | 0.10 | 0.00 | 59 | 1015.0 |
| 20260905183032 | 29 | 297 | 8.0 | 12.9 | 0.00 | 0.10 | 0.00 | 60 | 1015.1 |
| 20260905182531 | 28 | 326 | 3.2 | 8.0 | 0.00 | 0.10 | 0.00 | 63 | 1015.1 |
| 20260905182031 | 28 | 39 | 1.6 | 3.2 | 0.00 | 0.10 | 0.00 | 66 | 1015.1 |
| 20260905181530 | 27 | 269 | 6.4 | 11.3 | 0.00 | 0.10 | 0.00 | 65 | 1015.2 |
| 20260905181030 | 27 | 308 | 4.8 | 9.7 | 0.00 | 0.10 | 0.00 | 67 | 1015.2 |
| 20260905180529 | 26 | 298 | 3.2 | 11.3 | 0.00 | 0.10 | 0.00 | 70 | 1015.4 |
| 20260905180029 | 26 | 270 | 8.0 | 11.3 | 0.00 | 0.10 | 0.00 | 70 | 1015.4 |
| 20260905175528 | 26 | 294 | 6.4 | 11.3 | 0.00 | 0.10 | 0.00 | 70 | 1015.5 |
| 20260905175027 | 26 | 222 | 8.0 | 12.9 | 0.00 | 0.10 | 0.00 | 73 | 1015.2 |
| 20260905174527 | 25 | 208 | 9.7 | 14.5 | 0.00 | 0.10 | 0.00 | 74 | 1015.0 |
| 20260905174026 | 25 | 217 | 8.0 | 12.9 | 0.00 | 0.10 | 0.00 | 75 | 1015.2 |
| 20260905173526 | 25 | 203 | 16.1 | 22.5 | 0.00 | 0.10 | 0.00 | 76 | 1015.5 |
| 20260905173025 | 24 | 225 | 11.3 | 16.1 | 0.00 | 0.10 | 0.00 | 76 | 1015.8 |
| 20260905172525 | 24 | 203 | 11.3 | 20.9 | 0.00 | 0.10 | 0.00 | 76 | 1016.1 |
| 20260905172024 | 24 | 216 | 8.0 | 12.9 | 0.00 | 0.10 | 0.00 | 76 | 1016.4 |
| 20260905171523 | 24 | 210 | 6.4 | 11.3 | 0.00 | 0.10 | 0.00 | 76 | 1016.4 |
| 20260905171023 | 24 | 220 | 6.4 | 9.7 | 0.00 | 0.10 | 0.00 | 76 | 1016.7 |
| 20260905170522 | 24 | 259 | 3.2 | 4.8 | 0.00 | 0.10 | 0.00 | 76 | 1016.7 |
| 20260905170022 | 23 | 240 | 6.4 | 9.7 | 0.00 | 0.10 | 0.00 | 78 | 1016.9 |
| 20260905165521 | 23 | 242 | 3.2 | 8.0 | 0.00 | 0.10 | 0.00 | 79 | 1017.0 |
| 20260905165021 | 23 | 223 | 6.4 | 11.3 | 0.00 | 0.10 | 0.00 | 78 | 1017.1 |
| 20260905164520 | 24 | 211 | 6.4 | 8.0 | 0.00 | 0.10 | 0.00 | 78 | 1017.1 |
| 20260905164019 | 24 | 220 | 8.0 | 11.3 | 0.00 | 0.10 | 0.00 | 76 | 1017.3 |
| 20260905163519 | 24 | 238 | 4.8 | 8.0 | 0.00 | 0.10 | 0.00 | 74 | 1017.3 |
| 20260905163018 | 24 | 207 | 6.4 | 9.7 | 0.00 | 0.10 | 0.00 | 73 | 1017.3 |
| 20260905162518 | 24 | 261 | 1.6 | 3.2 | 0.00 | 0.10 | 0.00 | 73 | 1017.4 |
| 20260905162017 | 25 | 305 | 3.2 | 6.4 | 0.00 | 0.10 | 0.00 | 73 | 1017.2 |
| 20260905161517 | 25 | 44 | 1.6 | 3.2 | 0.00 | 0.10 | 0.00 | 73 | 1017.1 |
| 20260905161016 | 24 | 347 | 3.2 | 6.4 | 0.00 | 0.10 | 0.00 | 72 | 1017.1 |
| 20260905160516 | 24 | 313 | 3.2 | 8.0 | 0.00 | 0.10 | 0.00 | 72 | 1017.3 |
| 20260905160015 | 24 | 296 | 4.8 | 8.0 | 0.00 | 0.10 | 0.00 | 72 | 1017.4 |
| 20260905155515 | 24 | 270 | 6.4 | 8.0 | 0.00 | 0.10 | 0.00 | 73 | 1017.7 |
| 20260905155014 | 24 | 278 | 6.4 | 11.3 | 0.00 | 0.10 | 0.00 | 73 | 1017.7 |
| 20260905154513 | 24 | 340 | 3.2 | 6.4 | 0.00 | 0.10 | 0.00 | 74 | 1017.7 |
| 20260905154013 | 24 | 35 | 4.8 | 9.7 | 0.00 | 0.10 | 0.00 | 73 | 1017.7 |
| 20260905153512 | 24 | 334 | 3.2 | 6.4 | 0.00 | 0.10 | 0.00 | 73 | 1017.7 |
| 20260905153012 | 24 | 42 | 3.2 | 6.4 | 0.00 | 0.10 | 0.00 | 73 | 1017.4 |
| 20260905152511 | 24 | 27 | 4.8 | 8.0 | 0.00 | 0.10 | 0.00 | 72 | 1017.7 |
| 20260905152011 | 25 | 76 | 4.8 | 9.7 | 0.00 | 0.10 | 0.00 | 73 | 1017.7 |
| 20260905151514 | 25 | 51 | 3.2 | 9.7 | 0.00 | 0.10 | 0.00 | 75 | 1017.8 |
| 20260905151014 | 26 | 295 | 8.0 | 17.7 | 0.00 | 0.10 | 0.00 | 73 | 1017.7 |
| 20260905150514 | 27 | 272 | 6.4 | 12.9 | 0.00 | 0.10 | 0.00 | 70 | 1017.7 |
| 20260905150015 | 28 | 288 | 6.4 | 9.7 | 0.00 | 0.10 | 0.00 | 68 | 1017.0 |
| 20260905145514 | 28 | 272 | 4.8 | 6.4 | 0.00 | 0.10 | 0.00 | 68 | 1016.8 |
| 20260905145011 | 28 | 292 | 6.4 | 9.7 | 0.00 | 0.10 | 0.00 | 68 | 1016.7 |
| 20260905144506 | 28 | 288 | 3.2 | 4.8 | 0.00 | 0.10 | 0.00 | 67 | 1016.7 |
| 20260905144006 | 28 | 288 | 6.4 | 12.9 | 0.00 | 0.10 | 0.00 | 67 | 1016.8 |
| 20260905143506 | 28 | 298 | 4.8 | 8.0 | 0.00 | 0.10 | 0.00 | 67 | 1016.8 |
| 20260905143025 | 28 | 286 | 8.0 | 11.3 | 0.00 | 0.10 | 0.00 | 67 | 1016.8 |
| 20260905142504 | 28 | 336 | 3.2 | 6.4 | 0.00 | 0.10 | 0.00 | 68 | 1016.8 |
| 20260905142004 | 28 | 267 | 3.2 | 6.4 | 0.00 | 0.10 | 0.00 | 67 | 1016.8 |
| 20260905141503 | 28 | 316 | 4.8 | 9.7 | 0.00 | 0.10 | 0.00 | 67 | 1016.7 |
| 20260905141023 | 28 | 261 | 4.8 | 11.3 | 0.00 | 0.10 | 0.00 | 67 | 1016.7 |
| 20260905140504 | 28 | 266 | 6.4 | 14.5 | 0.00 | 0.10 | 0.00 | 68 | 1016.7 |
| 20260905140021 | 27 | 253 | 8.0 | 14.5 | 0.00 | 0.10 | 0.00 | 69 | 1016.7 |
| 20260905135521 | 27 | 254 | 3.2 | 4.8 | 0.00 | 0.10 | 0.00 | 71 | 1016.8 |
| 20260905135000 | 27 | 262 | 1.6 | 3.2 | 0.00 | 0.10 | 0.00 | 72 | 1016.7 |
| 20260905134507 | 27 | 260 | 4.8 | 8.0 | 0.00 | 0.10 | 0.00 | 70 | 1016.7 |
| 20260905133959 | 27 | 264 | 4.8 | 6.4 | 0.00 | 0.10 | 0.00 | 71 | 1016.8 |
| 20260905133519 | 27 | 254 | 3.2 | 4.8 | 0.00 | 0.10 | 0.00 | 71 | 1016.7 |
| 20260905132959 | 26 | 206 | 3.2 | 6.4 | 0.00 | 0.10 | 0.00 | 72 | 1016.7 |
| 20260905132507 | 26 | 242 | 4.8 | 9.7 | 0.00 | 0.10 | 0.00 | 72 | 1016.7 |
| 20260905132008 | 26 | 297 | 3.2 | 8.0 | 0.00 | 0.10 | 0.00 | 74 | 1016.7 |
| 20260905131456 | 25 | 216 | 3.2 | 3.2 | 0.00 | 0.10 | 0.00 | 76 | 1016.7 |
| 20260905130955 | 25 | 210 | 4.8 | 8.0 | 0.00 | 0.10 | 0.00 | 75 | 1016.7 |
| 20260905130455 | 24 | 212 | 0.0 | 1.6 | 0.00 | 0.10 | 0.00 | 79 | 1016.8 |
| 20260905130015 | 23 | 212 | 3.2 | 6.4 | 0.00 | 0.10 | 0.00 | 79 | 1016.9 |
| 20260905125514 | 23 | 211 | 6.4 | 8.0 | 0.00 | 0.10 | 0.00 | 79 | 1016.9 |
| 20260905125008 | 23 | 220 | 3.2 | 4.8 | 0.00 | 0.10 | 0.00 | 81 | 1016.8 |
| 20260905124513 | 23 | 73 | 1.6 | 4.8 | 0.00 | 0.10 | 0.00 | 81 | 1016.9 |
| 20260905123952 | 23 | 190 | 3.2 | 4.8 | 0.00 | 0.10 | 0.00 | 79 | 1016.9 |
| 20260905123506 | 23 | 70 | 1.6 | 3.2 | 0.00 | 0.10 | 0.00 | 79 | 1016.9 |
| 20260905122951 | 23 | 205 | 1.6 | 3.2 | 0.00 | 0.10 | 0.00 | 79 | 1016.9 |
| 20260905122501 | 22 | 0 | 0.0 | 0.0 | 0.00 | 0.10 | 0.00 | 83 | 1016.8 |
| 20260905122010 | 22 | 41 | 1.6 | 3.2 | 0.00 | 0.10 | 0.00 | 85 | 1016.8 |
| 20260905121449 | 21 | 185 | 4.8 | 6.4 | 0.00 | 0.10 | 0.00 | 85 | 1016.7 |
| 20260905120949 | 21 | 196 | 3.2 | 4.8 | 0.00 | 0.10 | 0.00 | 86 | 1016.7 |
| 20260905120508 | 21 | 216 | 4.8 | 4.8 | 0.00 | 0.10 | 0.00 | 86 | 1016.7 |
| 20260905115948 | 21 | 209 | 3.2 | 6.4 | 0.00 | 0.10 | 0.00 | 87 | 1016.6 |
| 20260905115500 | 20 | 227 | 3.2 | 3.2 | 0.00 | 0.10 | 0.00 | 89 | 1016.6 |
| 20260905114946 | 20 | 205 | 1.6 | 3.2 | 0.00 | 0.10 | 0.00 | 91 | 1016.7 |
| 20260905114506 | 20 | 199 | 3.2 | 4.8 | 0.00 | 0.10 | 0.00 | 92 | 1016.6 |
| 20260905113945 | 20 | 213 | 4.8 | 4.8 | 0.00 | 0.10 | 0.00 | 92 | 1016.6 |
| 20260905113444 | 19 | 207 | 3.2 | 3.2 | 0.00 | 0.10 | 0.00 | 93 | 1016.6 |
| 20260905112944 | 19 | 199 | 3.2 | 4.8 | 0.00 | 0.10 | 0.00 | 93 | 1016.7 |
| 20260905112504 | 19 | 207 | 3.2 | 3.2 | 0.00 | 0.10 | 0.00 | 94 | 1016.7 |
| 20260905111943 | 19 | 198 | 1.6 | 3.2 | 0.00 | 0.10 | 0.00 | 94 | 1016.6 |
| 20260905111455 | 19 | 205 | 1.6 | 1.6 | 0.00 | 0.10 | 0.00 | 94 | 1016.6 |
| 20260905110942 | 19 | 200 | 3.2 | 4.8 | 0.00 | 0.10 | 0.00 | 94 | 1016.6 |
| 20260905110442 | 19 | 184 | 1.6 | 1.6 | 0.00 | 0.10 | 0.00 | 94 | 1016.6 |
| 20260905105941 | 19 | 201 | 3.2 | 3.2 | 0.00 | 0.10 | 0.00 | 94 | 1016.6 |
| 20260905105454 | 19 | 4 | 1.6 | 1.6 | 0.00 | 0.10 | 0.00 | 93 | 1016.7 |
| 20260905105000 | 19 | 196 | 3.2 | 3.2 | 0.00 | 0.10 | 0.00 | 94 | 1016.6 |
| 20260905104459 | 19 | 228 | 3.2 | 4.8 | 0.00 | 0.10 | 0.00 | 94 | 1016.5 |